Wetterdaten: Woche 20.10.25 - 26.10.25 (KW43)
Datum Zeit Temp. I. Temp. A. Feuchte I. Feuchte A. Luftdruck Regen Wind Richtung Sonnenschein Solar Taupunkt Windchill Windböen
20.10.2025 00:00 21,4 °C 3,7 °C 55 % 83 % 1012,2 hPa 0,0 l/m² 0,4 km/h (0 Bft) O-NO 0,00 h 0 W/m² 1,1 °C 3,7 °C 1,3 km/h (1 Bft)
20.10.2025 01:00 21,3 °C 3,2 °C 55 % 85 % 1011,6 hPa 0,0 l/m² 1,7 km/h (1 Bft) O-NO 0,00 h 0 W/m² 1,0 °C 3,2 °C 3,4 km/h (1 Bft)
20.10.2025 02:00 21,3 °C 3,1 °C 55 % 87 % 1011,2 hPa 0,0 l/m² 3,7 km/h (1 Bft) O-NO 0,00 h 0 W/m² 1,1 °C 3,1 °C 5,8 km/h (2 Bft)
20.10.2025 03:00 21,2 °C 3,2 °C 55 % 87 % 1010,5 hPa 0,0 l/m² 4,3 km/h (1 Bft) O-NO 0,00 h 0 W/m² 1,3 °C 3,1 °C 6,9 km/h (2 Bft)
20.10.2025 04:00 21,2 °C 3,0 °C 55 % 88 % 1009,7 hPa 0,0 l/m² 4,5 km/h (1 Bft) O-NO 0,00 h 0 W/m² 1,2 °C 2,9 °C 7,0 km/h (2 Bft)
20.10.2025 05:00 21,3 °C 3,2 °C 55 % 89 % 1009,3 hPa 0,0 l/m² 3,8 km/h (1 Bft) O-NO 0,00 h 0 W/m² 1,6 °C 3,2 °C 6,3 km/h (2 Bft)
20.10.2025 06:00 21,2 °C 3,5 °C 55 % 89 % 1008,7 hPa 0,0 l/m² 4,3 km/h (1 Bft) O-NO 0,00 h 0 W/m² 1,9 °C 3,4 °C 6,6 km/h (2 Bft)
20.10.2025 07:00 21,2 °C 4,2 °C 54 % 89 % 1008,2 hPa 0,0 l/m² 3,8 km/h (1 Bft) O-NO 0,00 h 10 W/m² 2,6 °C 4,2 °C 5,7 km/h (2 Bft)
20.10.2025 08:00 21,2 °C 5,1 °C 54 % 89 % 1007,7 hPa 0,0 l/m² 6,7 km/h (2 Bft) O 0,00 h 20 W/m² 3,5 °C 4,2 °C 9,8 km/h (2 Bft)
20.10.2025 09:00 21,2 °C 6,5 °C 54 % 87 % 1007,3 hPa 0,0 l/m² 5,3 km/h (1 Bft) O-NO 0,23 h 40 W/m² 4,5 °C 6,3 °C 8,1 km/h (2 Bft)
20.10.2025 10:00 21,2 °C 8,1 °C 54 % 84 % 1007,0 hPa 0,0 l/m² 4,4 km/h (1 Bft) O-NO 1,00 h 130 W/m² 5,7 °C 7,9 °C 6,9 km/h (2 Bft)
20.10.2025 11:00 21,2 °C 10,4 °C 54 % 78 % 1006,6 hPa 0,0 l/m² 8,7 km/h (2 Bft) O-SO 1,00 h 207 W/m² 6,8 °C 8,8 °C 12,3 km/h (2 Bft)
20.10.2025 12:00 21,2 °C 12,6 °C 54 % 73 % 1005,8 hPa 0,0 l/m² 10,7 km/h (2 Bft) O-SO 1,00 h 304 W/m² 8,0 °C 10,2 °C 14,8 km/h (3 Bft)
20.10.2025 13:00 21,3 °C 14,6 °C 54 % 68 % 1005,1 hPa 0,0 l/m² 11,0 km/h (2 Bft) O-SO 1,00 h 424 W/m² 8,8 °C 12,3 °C 14,6 km/h (3 Bft)
20.10.2025 14:00 21,3 °C 16,3 °C 54 % 62 % 1004,2 hPa 0,0 l/m² 12,9 km/h (3 Bft) O-SO 1,00 h 330 W/m² 9,1 °C 13,5 °C 16,9 km/h (3 Bft)
20.10.2025 15:00 21,3 °C 16,2 °C 54 % 60 % 1003,8 hPa 0,0 l/m² 11,8 km/h (2 Bft) O-SO 1,00 h 192 W/m² 8,5 °C 13,8 °C 16,0 km/h (3 Bft)
20.10.2025 16:00 21,2 °C 15,8 °C 54 % 61 % 1003,3 hPa 0,0 l/m² 10,1 km/h (2 Bft) O-SO 0,45 h 58 W/m² 8,3 °C 14,0 °C 13,7 km/h (3 Bft)
20.10.2025 17:00 21,2 °C 14,2 °C 54 % 71 % 1002,8 hPa 0,0 l/m² 8,1 km/h (2 Bft) O 0,00 h 20 W/m² 9,0 °C 13,2 °C 11,2 km/h (2 Bft)
20.10.2025 18:00 21,1 °C 13,8 °C 54 % 70 % 1002,6 hPa 0,0 l/m² 10,9 km/h (2 Bft) SO 0,00 h 0 W/m² 8,4 °C 11,5 °C 14,7 km/h (3 Bft)
20.10.2025 19:00 21,2 °C 13,8 °C 55 % 71 % 1002,6 hPa 0,2 l/m² 11,8 km/h (2 Bft) SO 0,00 h 0 W/m² 8,6 °C 11,0 °C 16,1 km/h (3 Bft)
20.10.2025 20:00 21,2 °C 12,5 °C 55 % 80 % 1002,4 hPa 0,2 l/m² 7,3 km/h (2 Bft) SO 0,00 h 0 W/m² 9,2 °C 11,8 °C 11,3 km/h (2 Bft)
20.10.2025 21:00 21,4 °C 11,9 °C 56 % 85 % 1002,4 hPa 0,2 l/m² 9,6 km/h (2 Bft) SO 0,00 h 0 W/m² 9,5 °C 10,0 °C 13,9 km/h (3 Bft)
20.10.2025 22:00 21,3 °C 11,5 °C 55 % 86 % 1002,3 hPa 0,0 l/m² 11,6 km/h (2 Bft) SO 0,00 h 0 W/m² 9,2 °C 8,6 °C 16,8 km/h (3 Bft)
20.10.2025 23:00 21,2 °C 11,1 °C 55 % 84 % 1002,0 hPa 0,0 l/m² 13,7 km/h (3 Bft) SO 0,00 h 0 W/m² 8,4 °C 7,1 °C 19,0 km/h (3 Bft)
21.10.2025 00:00 21,1 °C 10,8 °C 55 % 84 % 1001,6 hPa 0,2 l/m² 11,8 km/h (2 Bft) SO 0,00 h 0 W/m² 8,2 °C 7,6 °C 17,1 km/h (3 Bft)
21.10.2025 01:00 21,1 °C 10,5 °C 55 % 86 % 1001,1 hPa 0,0 l/m² 10,2 km/h (2 Bft) O-SO 0,00 h 0 W/m² 8,2 °C 8,1 °C 15,0 km/h (3 Bft)
21.10.2025 02:00 21,1 °C 10,2 °C 55 % 87 % 1000,6 hPa 0,0 l/m² 9,0 km/h (2 Bft) O-SO 0,00 h 0 W/m² 8,1 °C 8,4 °C 12,6 km/h (3 Bft)
21.10.2025 03:00 21,1 °C 9,8 °C 55 % 86 % 999,8 hPa 0,0 l/m² 8,3 km/h (2 Bft) SO 0,00 h 0 W/m² 7,6 °C 8,4 °C 12,3 km/h (2 Bft)
21.10.2025 04:00 21,1 °C 9,8 °C 55 % 85 % 999,3 hPa 0,0 l/m² 3,4 km/h (1 Bft) O 0,00 h 0 W/m² 7,4 °C 9,7 °C 5,9 km/h (2 Bft)
21.10.2025 05:00 21,1 °C 9,2 °C 55 % 86 % 998,8 hPa 0,0 l/m² 3,3 km/h (1 Bft) O 0,00 h 0 W/m² 7,0 °C 9,1 °C 5,2 km/h (1 Bft)
21.10.2025 06:00 21,1 °C 9,5 °C 56 % 87 % 998,4 hPa 0,0 l/m² 8,3 km/h (2 Bft) S-SO 0,00 h 0 W/m² 7,5 °C 8,1 °C 12,4 km/h (2 Bft)
21.10.2025 07:00 21,0 °C 10,0 °C 56 % 86 % 998,2 hPa 0,0 l/m² 8,5 km/h (2 Bft) S-SO 0,00 h 6 W/m² 7,7 °C 8,6 °C 13,1 km/h (3 Bft)
21.10.2025 08:00 20,9 °C 10,6 °C 56 % 85 % 998,4 hPa 0,0 l/m² 8,1 km/h (2 Bft) S-SO 0,25 h 47 W/m² 8,3 °C 9,3 °C 12,1 km/h (2 Bft)
21.10.2025 09:00 21,0 °C 12,0 °C 56 % 85 % 998,3 hPa 0,0 l/m² 10,6 km/h (2 Bft) S-SO 1,00 h 132 W/m² 9,5 °C 9,5 °C 14,8 km/h (3 Bft)
21.10.2025 10:00 21,1 °C 14,1 °C 56 % 83 % 998,2 hPa 0,0 l/m² 13,3 km/h (3 Bft) S-SO 1,00 h 316 W/m² 11,2 °C 10,9 °C 18,9 km/h (3 Bft)
21.10.2025 11:00 21,2 °C 15,6 °C 56 % 78 % 998,6 hPa 0,0 l/m² 18,4 km/h (3 Bft) S 1,00 h 163 W/m² 11,8 °C 11,0 °C 25,5 km/h (4 Bft)
21.10.2025 12:00 21,1 °C 15,8 °C 56 % 76 % 998,5 hPa 0,0 l/m² 17,2 km/h (3 Bft) S-SW 1,00 h 117 W/m² 11,6 °C 11,5 °C 22,9 km/h (4 Bft)
21.10.2025 13:00 21,1 °C 16,2 °C 56 % 73 % 998,6 hPa 0,0 l/m² 18,7 km/h (3 Bft) SW 1,00 h 157 W/m² 11,4 °C 11,7 °C 24,7 km/h (4 Bft)
21.10.2025 14:00 21,1 °C 16,2 °C 56 % 71 % 998,8 hPa 0,0 l/m² 21,5 km/h (4 Bft) SW 1,00 h 138 W/m² 10,9 °C 11,1 °C 28,7 km/h (5 Bft)
21.10.2025 15:00 21,0 °C 16,1 °C 56 % 71 % 998,8 hPa 0,0 l/m² 15,1 km/h (3 Bft) S-SW 0,90 h 102 W/m² 10,9 °C 12,6 °C 19,4 km/h (3 Bft)
21.10.2025 16:00 20,9 °C 16,1 °C 56 % 71 % 999,1 hPa 0,0 l/m² 14,7 km/h (3 Bft) SW 0,38 h 53 W/m² 10,7 °C 12,7 °C 19,4 km/h (3 Bft)
21.10.2025 17:00 20,9 °C 15,5 °C 56 % 73 % 999,4 hPa 0,0 l/m² 8,0 km/h (2 Bft) S-SW 0,00 h 24 W/m² 10,6 °C 14,3 °C 11,0 km/h (2 Bft)
21.10.2025 18:00 20,9 °C 14,8 °C 55 % 74 % 999,8 hPa 0,0 l/m² 8,3 km/h (2 Bft) S-SW 0,00 h 0 W/m² 10,2 °C 13,3 °C 11,5 km/h (2 Bft)
21.10.2025 19:00 21,0 °C 14,3 °C 55 % 74 % 1000,1 hPa 0,0 l/m² 5,2 km/h (1 Bft) S-SW 0,00 h 0 W/m² 9,7 °C 14,2 °C 7,3 km/h (2 Bft)
21.10.2025 20:00 21,1 °C 13,2 °C 56 % 75 % 1000,2 hPa 0,0 l/m² 8,2 km/h (2 Bft) S-SO 0,00 h 0 W/m² 8,9 °C 12,0 °C 11,5 km/h (2 Bft)
21.10.2025 21:00 21,3 °C 12,0 °C 57 % 77 % 1000,2 hPa 0,0 l/m² 5,8 km/h (2 Bft) S-SO 0,00 h 0 W/m² 8,2 °C 11,7 °C 8,9 km/h (2 Bft)
21.10.2025 22:00 21,2 °C 11,3 °C 56 % 81 % 1000,3 hPa 0,0 l/m² 4,8 km/h (1 Bft) S-SO 0,00 h 0 W/m² 8,2 °C 11,0 °C 7,5 km/h (2 Bft)
21.10.2025 23:00 21,1 °C 10,5 °C 56 % 81 % 1000,4 hPa 0,0 l/m² 0,6 km/h (0 Bft) S-SO 0,00 h 0 W/m² 7,4 °C 10,5 °C 1,3 km/h (1 Bft)
22.10.2025 00:00 21,1 °C 8,6 °C 56 % 85 % 1000,2 hPa 0,0 l/m² 1,7 km/h (1 Bft) SO 0,00 h 0 W/m² 6,3 °C 8,6 °C 3,4 km/h (1 Bft)
22.10.2025 01:00 21,1 °C 7,8 °C 56 % 88 % 999,9 hPa 0,0 l/m² 2,8 km/h (1 Bft) NO 0,00 h 0 W/m² 6,0 °C 7,8 °C 4,6 km/h (1 Bft)
22.10.2025 02:00 21,1 °C 7,6 °C 56 % 90 % 999,6 hPa 0,0 l/m² 0,3 km/h (0 Bft) NO 0,00 h 0 W/m² 6,1 °C 7,6 °C 0,8 km/h (0 Bft)
22.10.2025 03:00 21,1 °C 7,1 °C 56 % 90 % 999,2 hPa 0,0 l/m² 0,4 km/h (0 Bft) NO 0,00 h 0 W/m² 5,6 °C 7,1 °C 1,0 km/h (0 Bft)
22.10.2025 04:00 21,1 °C 7,2 °C 56 % 91 % 998,9 hPa 0,0 l/m² 0,6 km/h (0 Bft) NO 0,00 h 0 W/m² 5,9 °C 7,2 °C 1,2 km/h (1 Bft)
22.10.2025 05:00 21,1 °C 7,7 °C 57 % 92 % 998,7 hPa 0,0 l/m² 1,6 km/h (1 Bft) NO 0,00 h 0 W/m² 6,5 °C 7,6 °C 3,4 km/h (1 Bft)
22.10.2025 06:00 21,2 °C 10,0 °C 57 % 94 % 998,8 hPa 0,0 l/m² 2,9 km/h (1 Bft) S-SO 0,00 h 0 W/m² 9,1 °C 10,0 °C 5,4 km/h (1 Bft)
22.10.2025 07:00 21,2 °C 10,5 °C 57 % 93 % 998,8 hPa 0,0 l/m² 0,0 km/h (0 Bft) S-SO 0,00 h 0 W/m² 9,5 °C 10,5 °C 0,0 km/h (0 Bft)
22.10.2025 08:00 21,2 °C 10,2 °C 57 % 93 % 999,1 hPa 0,0 l/m² 0,0 km/h (0 Bft) S-SO 0,00 h 16 W/m² 9,2 °C 10,2 °C 0,0 km/h (0 Bft)
22.10.2025 09:00 21,2 °C 11,2 °C 57 % 94 % 999,3 hPa 0,0 l/m² 0,7 km/h (0 Bft) S-SO 0,88 h 95 W/m² 10,2 °C 11,1 °C 1,4 km/h (1 Bft)
22.10.2025 10:00 21,3 °C 14,0 °C 57 % 92 % 999,5 hPa 0,0 l/m² 11,6 km/h (2 Bft) S 1,00 h 281 W/m² 12,7 °C 11,4 °C 15,9 km/h (3 Bft)
22.10.2025 11:00 21,3 °C 15,6 °C 57 % 82 % 999,9 hPa 0,0 l/m² 13,3 km/h (3 Bft) S-SW 1,00 h 198 W/m² 12,6 °C 12,5 °C 17,6 km/h (3 Bft)
22.10.2025 12:00 21,3 °C 16,5 °C 57 % 79 % 1000,1 hPa 0,0 l/m² 10,9 km/h (2 Bft) SW 1,00 h 208 W/m² 12,9 °C 14,5 °C 15,1 km/h (3 Bft)
22.10.2025 13:00 21,3 °C 17,5 °C 57 % 75 % 1000,0 hPa 0,0 l/m² 13,9 km/h (3 Bft) SW 1,00 h 411 W/m² 13,0 °C 14,6 °C 19,1 km/h (3 Bft)
22.10.2025 14:00 21,3 °C 19,0 °C 57 % 67 % 999,9 hPa 0,0 l/m² 13,8 km/h (3 Bft) SW 1,00 h 345 W/m² 12,8 °C 16,5 °C 18,5 km/h (3 Bft)
22.10.2025 15:00 21,3 °C 18,3 °C 57 % 69 % 999,9 hPa 0,0 l/m² 9,3 km/h (2 Bft) W-SW 0,88 h 133 W/m² 12,4 °C 17,1 °C 13,6 km/h (3 Bft)
22.10.2025 16:00 21,2 °C 17,0 °C 57 % 71 % 1000,1 hPa 0,0 l/m² 3,9 km/h (1 Bft) W-SW 0,52 h 50 W/m² 11,6 °C 16,9 °C 5,9 km/h (2 Bft)
22.10.2025 17:00 21,2 °C 16,3 °C 57 % 74 % 1000,3 hPa 0,0 l/m² 1,6 km/h (1 Bft) W-SW 0,00 h 18 W/m² 11,6 °C 16,3 °C 2,7 km/h (1 Bft)
22.10.2025 18:00 21,1 °C 15,2 °C 57 % 75 % 1000,2 hPa 0,0 l/m² 0,7 km/h (0 Bft) S-SW 0,00 h 0 W/m² 10,8 °C 15,2 °C 1,2 km/h (1 Bft)
22.10.2025 19:00 21,2 °C 14,2 °C 58 % 79 % 1000,2 hPa 0,0 l/m² 0,2 km/h (0 Bft) S-SW 0,00 h 0 W/m² 10,6 °C 14,2 °C 0,4 km/h (0 Bft)
22.10.2025 20:00 21,2 °C 13,4 °C 58 % 83 % 1000,1 hPa 0,0 l/m² 2,8 km/h (1 Bft) O-NO 0,00 h 0 W/m² 10,5 °C 13,3 °C 5,1 km/h (1 Bft)
22.10.2025 21:00 21,3 °C 13,3 °C 58 % 85 % 999,9 hPa 0,0 l/m² 1,4 km/h (1 Bft) O-NO 0,00 h 0 W/m² 10,7 °C 13,2 °C 2,7 km/h (1 Bft)
22.10.2025 22:00 21,2 °C 12,6 °C 58 % 86 % 999,7 hPa 0,0 l/m² 1,5 km/h (1 Bft) O-NO 0,00 h 0 W/m² 10,3 °C 12,6 °C 2,8 km/h (1 Bft)
22.10.2025 23:00 21,2 °C 12,2 °C 58 % 88 % 998,9 hPa 0,0 l/m² 3,4 km/h (1 Bft) O 0,00 h 0 W/m² 10,1 °C 12,2 °C 5,4 km/h (1 Bft)
23.10.2025 00:00 21,2 °C 11,7 °C 58 % 89 % 998,3 hPa 0,0 l/m² 0,7 km/h (0 Bft) O-NO 0,00 h 0 W/m² 9,9 °C 11,7 °C 2,2 km/h (1 Bft)
23.10.2025 01:00 21,2 °C 10,7 °C 58 % 89 % 997,3 hPa 0,0 l/m² 0,2 km/h (0 Bft) O-NO 0,00 h 0 W/m² 9,0 °C 10,7 °C 0,6 km/h (0 Bft)
23.10.2025 02:00 21,1 °C 10,5 °C 57 % 91 % 996,2 hPa 0,0 l/m² 1,7 km/h (1 Bft) O-NO 0,00 h 0 W/m² 9,1 °C 10,5 °C 2,9 km/h (1 Bft)
23.10.2025 03:00 21,1 °C 11,5 °C 57 % 92 % 994,9 hPa 0,0 l/m² 5,3 km/h (1 Bft) O 0,00 h 0 W/m² 10,3 °C 11,5 °C 7,7 km/h (2 Bft)
23.10.2025 04:00 21,2 °C 12,3 °C 57 % 92 % 993,4 hPa 0,0 l/m² 9,7 km/h (2 Bft) O 0,00 h 0 W/m² 11,1 °C 10,3 °C 13,2 km/h (3 Bft)
23.10.2025 05:00 21,2 °C 12,7 °C 57 % 92 % 992,0 hPa 0,0 l/m² 12,3 km/h (2 Bft) O-SO 0,00 h 0 W/m² 11,4 °C 9,6 °C 16,7 km/h (3 Bft)
23.10.2025 06:00 21,2 °C 12,7 °C 58 % 91 % 991,1 hPa 0,2 l/m² 11,9 km/h (2 Bft) O-SO 0,00 h 0 W/m² 11,4 °C 9,8 °C 15,6 km/h (3 Bft)
23.10.2025 07:00 21,2 °C 13,2 °C 58 % 92 % 989,7 hPa 0,0 l/m² 11,6 km/h (2 Bft) O-SO 0,00 h 5 W/m² 11,9 °C 10,4 °C 15,9 km/h (3 Bft)
23.10.2025 08:00 21,2 °C 13,8 °C 58 % 91 % 988,7 hPa 0,0 l/m² 14,0 km/h (3 Bft) O-SO 0,00 h 23 W/m² 12,3 °C 10,1 °C 18,4 km/h (3 Bft)
23.10.2025 09:00 21,2 °C 14,4 °C 58 % 91 % 987,8 hPa 0,0 l/m² 15,6 km/h (3 Bft) SO 0,52 h 59 W/m² 12,9 °C 10,3 °C 20,8 km/h (4 Bft)
23.10.2025 10:00 21,2 °C 15,5 °C 58 % 88 % 987,1 hPa 0,0 l/m² 13,6 km/h (3 Bft) SO 1,00 h 118 W/m² 13,5 °C 12,3 °C 18,7 km/h (3 Bft)
23.10.2025 11:00 21,3 °C 16,1 °C 58 % 86 % 987,0 hPa 0,4 l/m² 13,8 km/h (3 Bft) S-SO 0,72 h 79 W/m² 13,8 °C 13,0 °C 19,4 km/h (3 Bft)
23.10.2025 12:00 21,3 °C 15,6 °C 58 % 89 % 986,8 hPa 1,0 l/m² 15,2 km/h (3 Bft) S-SO 0,37 h 52 W/m² 13,7 °C 11,9 °C 21,2 km/h (4 Bft)
23.10.2025 13:00 21,3 °C 15,2 °C 58 % 89 % 986,0 hPa 0,0 l/m² 17,7 km/h (3 Bft) S 0,92 h 73 W/m² 13,4 °C 10,7 °C 24,6 km/h (4 Bft)
23.10.2025 14:00 21,4 °C 15,3 °C 58 % 85 % 986,9 hPa 0,0 l/m² 16,6 km/h (3 Bft) S-SO 1,00 h 101 W/m² 12,9 °C 11,2 °C 22,7 km/h (4 Bft)
23.10.2025 15:00 21,4 °C 15,3 °C 58 % 84 % 986,4 hPa 0,0 l/m² 12,8 km/h (3 Bft) S-SO 0,70 h 73 W/m² 12,5 °C 12,4 °C 17,8 km/h (3 Bft)
23.10.2025 16:00 21,3 °C 15,0 °C 58 % 81 % 986,5 hPa 0,0 l/m² 22,7 km/h (4 Bft) S 0,57 h 62 W/m² 11,7 °C 9,2 °C 31,6 km/h (5 Bft)
23.10.2025 17:00 21,3 °C 14,1 °C 58 % 74 % 986,9 hPa 0,0 l/m² 24,7 km/h (4 Bft) S 0,00 h 15 W/m² 9,5 °C 7,4 °C 34,2 km/h (5 Bft)
23.10.2025 18:00 21,2 °C 13,2 °C 58 % 75 % 987,4 hPa 0,0 l/m² 20,9 km/h (4 Bft) S 0,00 h 12 W/m² 8,9 °C 7,2 °C 29,3 km/h (5 Bft)
23.10.2025 19:00 21,3 °C 12,6 °C 59 % 75 % 987,4 hPa 0,0 l/m² 20,3 km/h (4 Bft) S-SO 0,00 h 0 W/m² 8,3 °C 6,7 °C 28,9 km/h (5 Bft)
23.10.2025 20:00 21,2 °C 12,3 °C 59 % 75 % 987,7 hPa 0,0 l/m² 15,8 km/h (3 Bft) S-SO 0,00 h 0 W/m² 8,0 °C 7,7 °C 22,2 km/h (4 Bft)
23.10.2025 21:00 21,3 °C 12,3 °C 59 % 76 % 988,2 hPa 0,0 l/m² 16,6 km/h (3 Bft) S 0,00 h 0 W/m² 8,2 °C 7,4 °C 22,2 km/h (4 Bft)
23.10.2025 22:00 21,2 °C 11,6 °C 59 % 81 % 989,1 hPa 0,0 l/m² 21,0 km/h (4 Bft) S 0,00 h 0 W/m² 8,5 °C 5,2 °C 28,0 km/h (5 Bft)
23.10.2025 23:00 21,1 °C 10,7 °C 59 % 87 % 989,7 hPa 0,2 l/m² 18,8 km/h (3 Bft) S-SW 0,00 h 0 W/m² 8,7 °C 4,7 °C 26,3 km/h (4 Bft)
24.10.2025 00:00 21,2 °C 10,4 °C 59 % 90 % 989,7 hPa 0,0 l/m² 14,0 km/h (3 Bft) S-SW 0,00 h 0 W/m² 8,8 °C 6,3 °C 19,8 km/h (4 Bft)
24.10.2025 01:00 21,2 °C 10,9 °C 59 % 88 % 990,4 hPa 0,0 l/m² 17,1 km/h (3 Bft) SW 0,00 h 0 W/m² 8,9 °C 5,5 °C 23,2 km/h (4 Bft)
24.10.2025 02:00 21,1 °C 11,2 °C 59 % 83 % 990,9 hPa 0,0 l/m² 19,5 km/h (3 Bft) SW 0,00 h 0 W/m² 8,4 °C 5,1 °C 26,8 km/h (4 Bft)
24.10.2025 03:00 21,1 °C 11,3 °C 59 % 80 % 991,5 hPa 0,0 l/m² 21,0 km/h (4 Bft) SW 0,00 h 0 W/m² 7,9 °C 4,8 °C 27,9 km/h (5 Bft)
24.10.2025 04:00 21,0 °C 11,1 °C 59 % 78 % 991,8 hPa 0,0 l/m² 22,5 km/h (4 Bft) SW 0,00 h 0 W/m² 7,4 °C 4,0 °C 29,7 km/h (5 Bft)
24.10.2025 05:00 20,9 °C 10,5 °C 58 % 79 % 992,8 hPa 0,0 l/m² 19,9 km/h (4 Bft) SW 0,00 h 0 W/m² 6,9 °C 4,1 °C 26,9 km/h (4 Bft)
24.10.2025 06:00 20,9 °C 10,3 °C 59 % 78 % 993,7 hPa 0,0 l/m² 16,8 km/h (3 Bft) SW 0,00 h 0 W/m² 6,7 °C 4,9 °C 22,7 km/h (4 Bft)
24.10.2025 07:00 21,0 °C 10,0 °C 58 % 79 % 994,6 hPa 0,0 l/m² 17,1 km/h (3 Bft) SW 0,00 h 0 W/m² 6,6 °C 4,4 °C 24,3 km/h (4 Bft)
24.10.2025 08:00 20,9 °C 9,7 °C 58 % 81 % 995,4 hPa 0,0 l/m² 16,3 km/h (3 Bft) SW 0,00 h 12 W/m² 6,7 °C 4,4 °C 22,4 km/h (4 Bft)
24.10.2025 09:00 20,9 °C 9,4 °C 58 % 83 % 996,4 hPa 0,2 l/m² 21,8 km/h (4 Bft) SW 0,43 h 46 W/m² 6,6 °C 2,0 °C 29,0 km/h (5 Bft)
24.10.2025 10:00 21,0 °C 9,6 °C 58 % 81 % 997,5 hPa 0,0 l/m² 23,9 km/h (4 Bft) SW 0,83 h 91 W/m² 6,6 °C 1,7 °C 31,2 km/h (5 Bft)
24.10.2025 11:00 21,1 °C 10,4 °C 58 % 79 % 998,7 hPa 0,0 l/m² 20,5 km/h (4 Bft) SW 0,92 h 184 W/m² 6,9 °C 3,7 °C 26,9 km/h (4 Bft)
24.10.2025 12:00 21,0 °C 10,6 °C 58 % 76 % 999,8 hPa 0,0 l/m² 19,9 km/h (4 Bft) W-SW 0,97 h 144 W/m² 6,5 °C 4,2 °C 27,8 km/h (5 Bft)
24.10.2025 13:00 21,0 °C 10,6 °C 58 % 75 % 1000,5 hPa 0,0 l/m² 22,8 km/h (4 Bft) SW 1,00 h 125 W/m² 6,3 °C 3,4 °C 31,5 km/h (5 Bft)
24.10.2025 14:00 21,1 °C 10,5 °C 57 % 73 % 1001,2 hPa 0,0 l/m² 25,1 km/h (4 Bft) SW 1,00 h 109 W/m² 5,9 °C 2,5 °C 34,6 km/h (5 Bft)
24.10.2025 15:00 21,1 °C 10,6 °C 58 % 71 % 1001,6 hPa 0,0 l/m² 23,4 km/h (4 Bft) W-SW 1,00 h 153 W/m² 5,6 °C 3,1 °C 32,1 km/h (5 Bft)
24.10.2025 16:00 21,2 °C 10,6 °C 59 % 68 % 1001,8 hPa 0,0 l/m² 20,8 km/h (4 Bft) SW 1,00 h 105 W/m² 5,0 °C 3,9 °C 28,1 km/h (5 Bft)
24.10.2025 17:00 21,3 °C 10,8 °C 59 % 67 % 1002,1 hPa 0,0 l/m² 16,5 km/h (3 Bft) SW 0,53 h 44 W/m² 4,8 °C 5,6 °C 22,9 km/h (4 Bft)
24.10.2025 18:00 21,1 °C 9,8 °C 58 % 68 % 1002,4 hPa 0,0 l/m² 13,1 km/h (3 Bft) SW 0,00 h 8 W/m² 4,2 °C 5,9 °C 18,2 km/h (3 Bft)
24.10.2025 19:00 21,1 °C 9,2 °C 58 % 71 % 1003,0 hPa 0,0 l/m² 19,1 km/h (3 Bft) SW 0,00 h 0 W/m² 4,2 °C 2,8 °C 25,4 km/h (4 Bft)
24.10.2025 20:00 21,1 °C 8,3 °C 58 % 75 % 1003,2 hPa 0,0 l/m² 9,9 km/h (2 Bft) S-SW 0,00 h 0 W/m² 4,2 °C 5,8 °C 13,1 km/h (3 Bft)
24.10.2025 21:00 21,2 °C 7,9 °C 57 % 78 % 1002,9 hPa 0,0 l/m² 8,7 km/h (2 Bft) S 0,00 h 0 W/m² 4,3 °C 6,1 °C 11,9 km/h (2 Bft)
24.10.2025 22:00 21,4 °C 8,0 °C 59 % 79 % 1002,9 hPa 0,0 l/m² 8,9 km/h (2 Bft) S-SW 0,00 h 0 W/m² 4,5 °C 6,1 °C 12,2 km/h (2 Bft)
24.10.2025 23:00 21,2 °C 7,9 °C 58 % 78 % 1002,6 hPa 0,0 l/m² 10,2 km/h (2 Bft) S-SW 0,00 h 0 W/m² 4,4 °C 5,4 °C 14,6 km/h (3 Bft)
25.10.2025 00:00 21,2 °C 8,8 °C 57 % 77 % 1002,5 hPa 0,0 l/m² 15,2 km/h (3 Bft) S-SW 0,00 h 0 W/m² 4,9 °C 3,7 °C 20,3 km/h (4 Bft)
25.10.2025 01:00 21,1 °C 9,3 °C 57 % 76 % 1002,2 hPa 0,0 l/m² 13,0 km/h (3 Bft) S-SW 0,00 h 0 W/m² 5,2 °C 5,3 °C 16,6 km/h (3 Bft)
25.10.2025 02:00 21,1 °C 8,8 °C 56 % 76 % 1001,8 hPa 0,0 l/m² 7,6 km/h (2 Bft) S-SW 0,00 h 0 W/m² 4,9 °C 6,9 °C 10,3 km/h (2 Bft)
25.10.2025 03:00 21,0 °C 8,7 °C 56 % 77 % 1001,1 hPa 0,0 l/m² 8,9 km/h (2 Bft) S-SW 0,00 h 0 W/m² 5,0 °C 6,6 °C 12,5 km/h (2 Bft)
25.10.2025 04:00 21,0 °C 8,7 °C 56 % 77 % 1000,6 hPa 0,0 l/m² 12,5 km/h (2 Bft) S-SW 0,00 h 0 W/m² 4,9 °C 5,0 °C 16,6 km/h (3 Bft)
25.10.2025 05:00 21,0 °C 7,9 °C 56 % 79 % 1000,1 hPa 0,0 l/m² 10,2 km/h (2 Bft) S 0,00 h 0 W/m² 4,6 °C 5,2 °C 13,9 km/h (3 Bft)
25.10.2025 06:00 21,0 °C 7,7 °C 56 % 81 % 999,7 hPa 0,0 l/m² 6,8 km/h (2 Bft) S-SO 0,00 h 0 W/m² 4,6 °C 6,7 °C 10,2 km/h (2 Bft)
25.10.2025 07:00 20,9 °C 7,9 °C 56 % 82 % 999,4 hPa 0,0 l/m² 9,7 km/h (2 Bft) S-SO 0,00 h 5 W/m² 5,0 °C 5,5 °C 13,8 km/h (3 Bft)
25.10.2025 08:00 21,1 °C 8,4 °C 57 % 82 % 999,2 hPa 0,0 l/m² 12,1 km/h (2 Bft) S 0,00 h 22 W/m² 5,5 °C 4,7 °C 17,0 km/h (3 Bft)
25.10.2025 09:00 21,4 °C 9,0 °C 59 % 82 % 999,1 hPa 0,0 l/m² 11,8 km/h (2 Bft) S 0,55 h 78 W/m² 6,0 °C 5,6 °C 16,4 km/h (3 Bft)
25.10.2025 10:00 21,3 °C 10,3 °C 55 % 77 % 998,7 hPa 0,0 l/m² 17,5 km/h (3 Bft) S-SW 1,00 h 164 W/m² 6,4 °C 4,7 °C 23,7 km/h (4 Bft)
25.10.2025 11:00 21,1 °C 11,1 °C 55 % 73 % 998,2 hPa 0,0 l/m² 16,9 km/h (3 Bft) S-SW 1,00 h 127 W/m² 6,5 °C 5,8 °C 22,3 km/h (4 Bft)
25.10.2025 12:00 21,0 °C 11,7 °C 55 % 71 % 997,8 hPa 0,0 l/m² 18,0 km/h (3 Bft) S-SW 1,00 h 102 W/m² 6,6 °C 6,2 °C 24,0 km/h (4 Bft)
25.10.2025 13:00 20,9 °C 12,1 °C 55 % 70 % 997,0 hPa 0,0 l/m² 18,7 km/h (3 Bft) S-SW 0,97 h 84 W/m² 6,8 °C 6,5 °C 24,5 km/h (4 Bft)
25.10.2025 14:00 20,9 °C 12,3 °C 55 % 71 % 996,3 hPa 0,0 l/m² 25,0 km/h (4 Bft) S-SW 1,00 h 139 W/m² 7,2 °C 5,0 °C 32,7 km/h (5 Bft)
25.10.2025 15:00 21,0 °C 12,3 °C 55 % 75 % 995,9 hPa 0,0 l/m² 22,4 km/h (4 Bft) SW 1,00 h 158 W/m² 7,9 °C 5,7 °C 30,0 km/h (5 Bft)
25.10.2025 16:00 21,0 °C 12,5 °C 55 % 72 % 995,8 hPa 0,0 l/m² 21,7 km/h (4 Bft) SW 0,37 h 68 W/m² 7,6 °C 6,2 °C 28,5 km/h (5 Bft)
25.10.2025 17:00 20,9 °C 12,0 °C 55 % 73 % 995,8 hPa 0,0 l/m² 20,9 km/h (4 Bft) SW 0,00 h 14 W/m² 7,3 °C 5,7 °C 28,3 km/h (5 Bft)
25.10.2025 18:00 20,8 °C 11,6 °C 56 % 75 % 996,1 hPa 0,0 l/m² 24,6 km/h (4 Bft) SW 0,00 h 0 W/m² 7,4 °C 4,2 °C 32,7 km/h (5 Bft)
25.10.2025 19:00 20,8 °C 11,2 °C 56 % 79 % 997,0 hPa 0,0 l/m² 20,5 km/h (4 Bft) SW 0,00 h 0 W/m² 7,7 °C 4,7 °C 28,1 km/h (5 Bft)
25.10.2025 20:00 20,7 °C 10,8 °C 56 % 81 % 997,7 hPa 0,0 l/m² 17,1 km/h (3 Bft) SW 0,00 h 0 W/m² 7,8 °C 5,4 °C 23,3 km/h (4 Bft)
25.10.2025 21:00 21,0 °C 10,4 °C 57 % 84 % 998,3 hPa 0,0 l/m² 15,2 km/h (3 Bft) SW 0,00 h 0 W/m² 7,9 °C 5,7 °C 20,5 km/h (4 Bft)
25.10.2025 22:00 21,3 °C 10,3 °C 58 % 85 % 999,1 hPa 0,0 l/m² 15,2 km/h (3 Bft) SW 0,00 h 0 W/m² 7,9 °C 5,5 °C 20,6 km/h (4 Bft)
25.10.2025 23:00 21,1 °C 10,1 °C 58 % 84 % 999,5 hPa 0,0 l/m² 17,1 km/h (3 Bft) W-SW 0,00 h 0 W/m² 7,5 °C 4,5 °C 23,1 km/h (4 Bft)
26.10.2025 00:00 21,0 °C 9,7 °C 58 % 81 % 999,8 hPa 0,0 l/m² 17,4 km/h (3 Bft) SW 0,00 h 0 W/m² 6,6 °C 3,8 °C 24,7 km/h (4 Bft)
26.10.2025 01:00 20,9 °C 8,9 °C 59 % 81 % 1000,1 hPa 0,0 l/m² 15,0 km/h (3 Bft) SW 0,00 h 0 W/m² 5,8 °C 3,9 °C 21,3 km/h (4 Bft)
26.10.2025 02:00 20,9 °C 7,0 °C 58 % 83 % 1000,1 hPa 0,0 l/m² 5,2 km/h (1 Bft) W-SW 0,00 h 0 W/m² 4,2 °C 6,0 °C 7,6 km/h (2 Bft)
26.10.2025 03:00 20,9 °C 5,1 °C 58 % 85 % 999,5 hPa 0,0 l/m² 3,2 km/h (1 Bft) SW 0,00 h 0 W/m² 2,8 °C 5,1 °C 4,6 km/h (1 Bft)
26.10.2025 04:00 20,8 °C 6,2 °C 58 % 89 % 999,1 hPa 0,0 l/m² 10,5 km/h (2 Bft) SW 0,00 h 0 W/m² 4,5 °C 3,3 °C 13,8 km/h (3 Bft)
26.10.2025 05:00 20,9 °C 6,8 °C 58 % 86 % 998,8 hPa 0,0 l/m² 11,8 km/h (2 Bft) SW 0,00 h 0 W/m² 4,7 °C 3,1 °C 15,9 km/h (3 Bft)
26.10.2025 06:00 20,9 °C 6,6 °C 58 % 86 % 998,6 hPa 0,0 l/m² 12,1 km/h (2 Bft) S-SW 0,00 h 5 W/m² 4,5 °C 2,6 °C 16,3 km/h (3 Bft)
26.10.2025 07:00 20,9 °C 6,3 °C 58 % 86 % 998,6 hPa 0,0 l/m² 17,1 km/h (3 Bft) S-SW 0,32 h 40 W/m² 4,2 °C -0,2 °C 22,5 km/h (4 Bft)
26.10.2025 08:00 21,0 °C 7,0 °C 58 % 82 % 998,5 hPa 0,0 l/m² 19,4 km/h (3 Bft) SW 0,95 h 163 W/m² 4,1 °C -0,2 °C 25,5 km/h (4 Bft)
26.10.2025 09:00 21,2 °C 8,1 °C 57 % 74 % 998,2 hPa 0,0 l/m² 31,1 km/h (5 Bft) SW 0,98 h 210 W/m² 3,8 °C -2,2 °C 41,7 km/h (6 Bft)
26.10.2025 10:00 21,1 °C 6,9 °C 55 % 78 % 998,2 hPa 0,6 l/m² 32,2 km/h (5 Bft) SW 0,48 h 56 W/m² 3,3 °C -4,1 °C 42,7 km/h (6 Bft)
26.10.2025 11:00 21,0 °C 5,2 °C 55 % 87 % 997,9 hPa 1,6 l/m² 28,4 km/h (5 Bft) SW 0,00 h 27 W/m² 3,2 °C -5,5 °C 37,4 km/h (5 Bft)
26.10.2025 12:00 21,1 °C 5,6 °C 58 % 88 % 997,3 hPa 0,0 l/m² 32,9 km/h (5 Bft) SW 0,78 h 73 W/m² 3,8 °C -5,9 °C 44,2 km/h (6 Bft)
26.10.2025 13:00 20,8 °C 6,8 °C 55 % 88 % 997,7 hPa 0,0 l/m² 32,6 km/h (5 Bft) SW 1,00 h 158 W/m² 5,0 °C -4,3 °C 44,5 km/h (6 Bft)
26.10.2025 14:00 20,9 °C 7,5 °C 57 % 87 % 998,3 hPa 0,0 l/m² 30,7 km/h (5 Bft) SW 1,00 h 109 W/m² 5,5 °C -3,0 °C 43,5 km/h (6 Bft)
26.10.2025 15:00 21,1 °C 7,8 °C 59 % 86 % 999,2 hPa 0,0 l/m² 27,5 km/h (5 Bft) SW 0,35 h 41 W/m² 5,5 °C -1,8 °C 37,4 km/h (5 Bft)
26.10.2025 16:00 21,1 °C 8,0 °C 59 % 84 % 1000,0 hPa 0,0 l/m² 23,9 km/h (4 Bft) SW 0,00 h 10 W/m² 5,5 °C -0,4 °C 33,0 km/h (5 Bft)
26.10.2025 17:00 21,1 °C 8,2 °C 59 % 82 % 1000,7 hPa 0,0 l/m² 24,4 km/h (4 Bft) SW 0,00 h 0 W/m² 5,4 °C -0,3 °C 33,5 km/h (5 Bft)
26.10.2025 18:00 21,0 °C 8,1 °C 59 % 83 % 1001,5 hPa 0,0 l/m² 27,6 km/h (5 Bft) SW 0,00 h 0 W/m² 5,3 °C -1,4 °C 37,6 km/h (5 Bft)
26.10.2025 19:00 21,1 °C 7,7 °C 61 % 84 % 1001,9 hPa 0,0 l/m² 29,2 km/h (5 Bft) SW 0,00 h 0 W/m² 5,2 °C -2,3 °C 40,5 km/h (6 Bft)
26.10.2025 20:00 21,2 °C 7,1 °C 60 % 84 % 1001,9 hPa 0,0 l/m² 26,1 km/h (4 Bft) SW 0,00 h 0 W/m² 4,6 °C -2,3 °C 35,9 km/h (5 Bft)
26.10.2025 21:00 21,3 °C 7,2 °C 60 % 80 % 1002,0 hPa 0,0 l/m² 22,1 km/h (4 Bft) SW 0,00 h 0 W/m² 4,0 °C -1,0 °C 30,8 km/h (5 Bft)
26.10.2025 22:00 21,2 °C 6,9 °C 59 % 78 % 1001,8 hPa 0,0 l/m² 16,9 km/h (3 Bft) SW 0,00 h 0 W/m² 3,4 °C 0,7 °C 23,6 km/h (4 Bft)
26.10.2025 23:00 21,0 °C 6,3 °C 59 % 79 % 1001,4 hPa 0,0 l/m² 17,0 km/h (3 Bft) SW 0,00 h 0 W/m² 2,9 °C -0,1 °C 23,8 km/h (4 Bft)
Min-Datum _ 25.10.25 20.10.25 26.10.25 20.10.25 23.10.25 - 26.10.25 - - - 20.10.25 26.10.25 26.10.25
_ Min-Zeit 21:00 04:35 12:57 16:01 13:05 - 03:01 - - - 01:07 12:45 03:01
Minimum _ 20,7 °C 2,8 °C 53 % 59 % 984,2 hPa - 0,0 km/h (0 Bft) - - - 0,9 °C -8,6 °C 0,0 km/h (0 Bft)
Max-Datum _ 25.10.25 22.10.25 26.10.25 22.10.25 20.10.25 26.10.25 26.10.25 - 24.10.25 20.10.25 23.10.25 22.10.25 26.10.25
_ Max-Zeit 09:48 14:21 20:00 10:03 00:00 11:03 12:45 - 12:07 13:19 11:36 14:04 13:35
Maximum _ 21,6 °C 19,5 °C 61 % 95 % 1012,5 hPa 1,6 l/m² 49,9 km/h
SW (7 Bft)
- 0,10 h 615 W/m² 14,0 °C 19,0 °C 59,5 km/h
SW (7 Bft)
Durchschnitt _ 21,1 °C 10,7 °C 57 % 81 % 998,7 hPa #5,0 l/m² 13,0 km/h (3 Bft) SW #47:43 h 49 W/m² 7,5 °C 7,1 °C 17,9 km/h (3 Bft)
© 2009 Mathias Hoßbach